createdAt,value
2018-02-03T00:01:11.206Z,9.97
2018-02-03T00:03:41.067Z,11.33
2018-02-03T00:06:10.145Z,11.63
2018-02-03T00:08:39.258Z,17.83
2018-02-03T00:11:09.137Z,11.73
2018-02-03T00:13:39.031Z,13.63
2018-02-03T00:16:08.117Z,13.80
2018-02-03T00:18:37.252Z,14.70
2018-02-03T00:21:06.388Z,15.77
2018-02-03T00:23:35.469Z,13.37
2018-02-03T00:26:05.333Z,13.80
2018-02-03T00:28:34.419Z,13.67
2018-02-03T00:31:03.512Z,13.07
2018-02-03T00:33:32.614Z,16.00
2018-02-03T00:36:01.708Z,16.03
2018-02-03T00:38:30.812Z,15.23
2018-02-03T00:41:00.849Z,18.20
2018-02-03T00:43:29.935Z,15.90
2018-02-03T00:45:59.039Z,15.47
2018-02-03T00:48:28.123Z,16.03
2018-02-03T00:50:57.994Z,13.60
2018-02-03T00:53:27.825Z,14.77
2018-02-03T00:55:56.950Z,18.70
2018-02-03T00:58:26.029Z,19.33
2018-02-03T01:00:55.137Z,20.13
2018-02-03T01:03:24.225Z,22.90
2018-02-03T01:05:53.294Z,16.50
2018-02-03T01:08:22.397Z,17.60
2018-02-03T01:10:51.491Z,19.20
2018-02-03T01:13:20.587Z,16.57
2018-02-03T01:15:49.662Z,18.70
2018-02-03T01:18:19.537Z,17.67
2018-02-03T01:20:49.394Z,22.00
2018-02-03T01:23:18.482Z,15.60
2018-02-03T01:25:49.085Z,18.40
2018-02-03T01:28:18.195Z,14.33
2018-02-03T01:30:47.322Z,17.00
2018-02-03T01:33:16.423Z,16.53
2018-02-03T01:35:45.511Z,16.23
2018-02-03T01:38:14.613Z,14.40
2018-02-03T01:40:43.713Z,26.57
2018-02-03T01:43:12.829Z,22.10
2018-02-03T01:45:42.215Z,24.83
2018-02-03T01:48:11.316Z,23.43
2018-02-03T01:50:40.422Z,16.50
2018-02-03T01:53:09.534Z,14.77
2018-02-03T01:55:38.618Z,19.70
2018-02-03T01:58:07.745Z,18.07
2018-02-03T02:00:36.838Z,16.90
2018-02-03T02:03:05.925Z,17.50
2018-02-03T02:05:35.054Z,16.53
2018-02-03T02:08:04.916Z,18.03
2018-02-03T02:10:34.040Z,18.03
2018-02-03T02:13:03.116Z,16.33
2018-02-03T02:15:32.407Z,17.33
2018-02-03T02:18:01.513Z,20.27
2018-02-03T02:20:30.617Z,16.30
2018-02-03T02:22:59.713Z,16.90
2018-02-03T02:25:28.804Z,17.43
2018-02-03T02:27:58.466Z,16.67
2018-02-03T02:30:28.296Z,12.93
2018-02-03T02:32:57.412Z,14.67
2018-02-03T02:35:26.510Z,20.13
2018-02-03T02:37:55.581Z,17.83
2018-02-03T02:40:24.688Z,17.17
2018-02-03T02:42:53.795Z,17.30
2018-02-03T02:45:22.921Z,16.90
2018-02-03T02:47:52.006Z,18.73
2018-02-03T02:50:21.138Z,20.40
2018-02-03T02:52:51.020Z,16.63
2018-02-03T02:55:20.122Z,16.50
2018-02-03T02:57:49.212Z,15.60
2018-02-03T03:00:18.335Z,13.20
2018-02-03T03:02:48.185Z,12.60
2018-02-03T03:05:17.280Z,17.90
2018-02-03T03:07:46.356Z,14.83
2018-02-03T03:10:15.466Z,14.77
2018-02-03T03:12:44.543Z,15.67
2018-02-03T03:15:14.403Z,16.80
2018-02-03T03:17:45.117Z,16.70
2018-02-03T03:20:14.209Z,15.17
2018-02-03T03:22:43.331Z,17.27
2018-02-03T03:25:13.209Z,15.70
2018-02-03T03:27:42.304Z,16.97
2018-02-03T03:30:11.380Z,13.10
2018-02-03T03:32:41.974Z,16.53
2018-02-03T03:35:11.057Z,17.60
2018-02-03T03:37:40.181Z,14.60
2018-02-03T03:40:09.281Z,15.40
2018-02-03T03:42:39.146Z,16.37
2018-02-03T03:45:08.244Z,24.73
2018-02-03T03:47:37.329Z,19.57
2018-02-03T03:50:06.435Z,21.10
2018-02-03T03:52:35.525Z,22.17
2018-02-03T03:55:04.617Z,17.37
2018-02-03T03:57:33.722Z,19.93
2018-02-03T04:00:02.822Z,19.60
2018-02-03T04:02:31.908Z,21.13
2018-02-03T04:05:01.030Z,23.93
2018-02-03T04:07:30.101Z,20.87
2018-02-03T04:09:59.206Z,20.70
2018-02-03T04:12:28.349Z,19.53
2018-02-03T04:14:58.214Z,25.83
2018-02-03T04:17:27.293Z,19.23
2018-02-03T04:19:57.161Z,25.80
2018-02-03T04:22:26.281Z,24.50
2018-02-03T04:24:56.143Z,16.47
2018-02-03T04:27:25.250Z,19.00
2018-02-03T04:29:54.346Z,21.27
2018-02-03T04:32:23.436Z,25.30
2018-02-03T04:34:52.531Z,18.77
2018-02-03T04:37:21.637Z,21.90
2018-02-03T04:39:50.718Z,19.93
2018-02-03T04:42:19.833Z,19.60
2018-02-03T04:44:48.941Z,23.90
2018-02-03T04:47:18.037Z,17.13
2018-02-03T04:49:47.161Z,25.07
2018-02-03T04:52:16.994Z,19.97
2018-02-03T04:54:46.870Z,16.90
2018-02-03T04:57:15.958Z,21.90
2018-02-03T04:59:45.052Z,19.23
2018-02-03T05:02:14.173Z,21.20
2018-02-03T05:04:44.021Z,20.03
2018-02-03T05:07:13.127Z,22.87
2018-02-03T05:09:42.241Z,18.97
2018-02-03T05:12:11.462Z,21.60
2018-02-03T05:14:42.076Z,22.30
2018-02-03T05:17:11.755Z,20.40
2018-02-03T05:19:40.878Z,20.20
2018-02-03T05:22:09.963Z,22.60
2018-02-03T05:24:39.952Z,23.03
2018-02-03T05:27:09.041Z,21.70
2018-02-03T05:29:38.143Z,20.57
2018-02-03T05:32:07.250Z,21.27
2018-02-03T05:34:36.330Z,16.33
2018-02-03T05:37:05.434Z,18.47
2018-02-03T05:39:34.531Z,22.00
2018-02-03T05:42:03.645Z,19.70
2018-02-03T05:44:33.489Z,17.50
2018-02-03T05:47:03.377Z,26.93
2018-02-03T05:49:32.467Z,21.03
2018-02-03T05:52:01.579Z,23.87
2018-02-03T05:54:31.460Z,29.40
2018-02-03T05:57:00.929Z,23.50
2018-02-03T05:59:30.780Z,20.70
2018-02-03T06:01:59.890Z,23.87
2018-02-03T06:04:29.018Z,22.50
2018-02-03T06:06:58.828Z,21.50
2018-02-03T06:09:28.036Z,24.30
2018-02-03T06:11:57.128Z,24.60
2018-02-03T06:14:26.214Z,20.93
2018-02-03T06:16:55.314Z,19.67
2018-02-03T06:19:24.421Z,21.30
2018-02-03T06:21:54.295Z,21.87
2018-02-03T06:24:23.402Z,19.13
2018-02-03T06:26:52.493Z,21.07
2018-02-03T06:29:21.601Z,24.60
2018-02-03T06:31:50.707Z,20.60
2018-02-03T06:34:19.812Z,16.93
2018-02-03T06:36:48.913Z,19.10
2018-02-03T06:39:18.001Z,16.73
2018-02-03T06:41:48.622Z,17.07
2018-02-03T06:44:17.717Z,19.93
2018-02-03T06:46:46.830Z,19.70
2018-02-03T06:49:16.722Z,19.83
2018-02-03T06:51:45.818Z,19.67
2018-02-03T06:54:14.950Z,22.37
2018-02-03T06:56:44.839Z,20.37
2018-02-03T06:59:13.931Z,22.10
2018-02-03T07:01:43.037Z,21.50
2018-02-03T07:04:12.128Z,28.30
2018-02-03T07:06:41.246Z,22.33
2018-02-03T07:09:11.109Z,21.23
2018-02-03T07:11:40.993Z,19.40
2018-02-03T07:14:10.073Z,27.30
2018-02-03T07:16:39.925Z,20.60
2018-02-03T07:19:09.042Z,20.30
2018-02-03T07:21:38.135Z,23.57
2018-02-03T07:24:07.257Z,26.97
2018-02-03T07:26:37.114Z,23.30
2018-02-03T07:29:06.233Z,23.97
2018-02-03T07:31:35.330Z,19.17
2018-02-03T07:34:04.424Z,22.73
2018-02-03T07:39:06.871Z,16.93
2018-02-03T07:41:36.769Z,22.10
2018-02-03T07:44:06.635Z,25.97
2018-02-03T07:46:35.781Z,18.80
2018-02-03T07:49:05.656Z,19.33
2018-02-03T07:51:35.540Z,21.03
2018-02-03T07:54:04.648Z,17.77
2018-02-03T07:56:34.510Z,19.30
2018-02-03T07:59:04.066Z,22.40
2018-02-03T08:01:33.182Z,19.00
2018-02-03T08:04:02.278Z,24.50
2018-02-03T08:06:31.383Z,20.70
2018-02-03T08:09:00.509Z,21.93
2018-02-03T08:11:30.373Z,22.20
2018-02-03T08:13:59.501Z,19.43
2018-02-03T08:16:28.600Z,20.30
2018-02-03T08:18:57.694Z,22.03
2018-02-03T08:21:26.822Z,21.30
2018-02-03T08:23:56.710Z,22.47
2018-02-03T08:26:25.815Z,22.33
2018-02-03T08:28:54.924Z,18.80
2018-02-03T08:31:24.029Z,21.47
2018-02-03T08:33:53.877Z,20.63
2018-02-03T08:36:22.988Z,19.17
2018-02-03T08:38:52.105Z,22.57
2018-02-03T08:41:21.979Z,29.17
2018-02-03T08:43:51.073Z,27.03
2018-02-03T08:46:20.166Z,22.83
2018-02-03T08:48:50.348Z,22.10
2018-02-03T08:51:19.446Z,20.17
2018-02-03T08:53:49.310Z,26.83
2018-02-03T08:56:18.403Z,26.27
2018-02-03T08:58:47.516Z,22.60
2018-02-03T09:01:16.623Z,21.20
2018-02-03T09:03:45.727Z,26.23
2018-02-03T09:06:14.825Z,21.63
2018-02-03T09:08:43.941Z,22.60
2018-02-03T09:11:13.022Z,22.20
2018-02-03T09:13:42.122Z,23.97
2018-02-03T09:16:12.014Z,23.97
2018-02-03T09:18:41.101Z,21.07
2018-02-03T09:21:10.231Z,26.00
2018-02-03T09:23:40.103Z,23.97
2018-02-03T09:26:09.216Z,28.20
2018-02-03T09:28:38.312Z,23.40
2018-02-03T09:31:07.434Z,20.40
2018-02-03T09:33:37.351Z,24.07
2018-02-03T09:36:06.464Z,23.43
2018-02-03T09:38:35.558Z,22.43
2018-02-03T09:41:05.451Z,23.67
2018-02-03T09:43:34.557Z,22.07
2018-02-03T09:46:04.427Z,22.33
2018-02-03T09:48:34.286Z,22.63
2018-02-03T09:51:04.216Z,21.30
2018-02-03T09:53:34.053Z,20.37
2018-02-03T09:56:03.178Z,20.80
2018-02-03T09:58:32.273Z,21.53
2018-02-03T10:01:01.644Z,25.43
2018-02-03T10:03:30.731Z,22.67
2018-02-03T10:05:59.845Z,23.93
2018-02-03T10:08:28.926Z,23.50
2018-02-03T10:10:58.040Z,28.37
2018-02-03T10:13:27.161Z,29.10
2018-02-03T10:15:57.712Z,24.13
2018-02-03T10:18:28.876Z,22.90
2018-02-03T10:21:00.487Z,25.07
2018-02-03T10:23:29.693Z,22.30
2018-02-03T10:25:59.505Z,22.93
2018-02-03T10:28:28.612Z,25.10
2018-02-03T10:30:57.714Z,28.13
2018-02-03T10:33:26.839Z,22.87
2018-02-03T10:35:56.698Z,26.63
2018-02-03T10:38:25.803Z,23.30
2018-02-03T10:40:54.929Z,23.40
2018-02-03T10:43:24.794Z,18.83
2018-02-03T10:45:53.923Z,22.30
2018-02-03T10:48:23.000Z,26.63
2018-02-03T10:50:52.122Z,24.97
2018-02-03T10:53:21.257Z,22.57
2018-02-03T10:55:50.346Z,17.57
2018-02-03T10:58:20.205Z,20.07
2018-02-03T11:00:50.856Z,18.67
2018-02-03T11:03:19.955Z,19.87
2018-02-03T11:05:49.040Z,18.90
2018-02-03T11:08:18.153Z,21.40
2018-02-03T11:10:48.034Z,22.53
2018-02-03T11:13:17.158Z,18.13
2018-02-03T11:15:46.265Z,22.93
2018-02-03T11:18:16.151Z,20.10
2018-02-03T11:20:45.280Z,19.03
2018-02-03T11:23:15.150Z,20.70
2018-02-03T11:25:44.280Z,18.90
2018-02-03T11:28:14.150Z,24.37
2018-02-03T11:30:43.286Z,19.87
2018-02-03T11:33:12.384Z,25.03
2018-02-03T11:35:41.502Z,19.80
2018-02-03T11:38:11.377Z,27.00
2018-02-03T11:40:40.479Z,19.40
2018-02-03T11:43:09.617Z,23.10
2018-02-03T11:45:39.465Z,24.03
2018-02-03T11:48:08.597Z,23.50
2018-02-03T11:50:37.673Z,21.57
2018-02-03T11:53:06.824Z,19.93
2018-02-03T11:55:35.908Z,22.50
2018-02-03T11:58:05.031Z,29.20
2018-02-03T12:00:34.130Z,24.60
2018-02-03T12:03:03.282Z,21.23
2018-02-03T12:05:32.386Z,23.07
2018-02-03T12:08:03.183Z,24.47
2018-02-03T12:10:32.291Z,23.30
2018-02-03T12:13:01.377Z,20.07
2018-02-03T12:15:30.503Z,20.07
2018-02-03T12:18:00.362Z,18.47
2018-02-03T12:20:29.490Z,20.30
2018-02-03T12:22:58.621Z,21.40
2018-02-03T12:25:28.458Z,19.70
2018-02-03T12:27:57.564Z,22.47
2018-02-03T12:30:26.689Z,21.70
2018-02-03T12:32:56.601Z,29.83
2018-02-03T12:35:25.703Z,19.80
2018-02-03T12:37:54.830Z,23.67
2018-02-03T12:40:23.939Z,33.40
2018-02-03T12:42:53.786Z,24.27
2018-02-03T12:45:22.900Z,20.40
2018-02-03T12:47:52.051Z,22.37
2018-02-03T12:50:21.151Z,18.97
2018-02-03T12:52:51.087Z,21.00
2018-02-03T12:55:20.209Z,35.97
2018-02-03T12:57:49.350Z,24.17
2018-02-03T13:00:18.459Z,26.10
2018-02-03T13:02:47.577Z,26.93
2018-02-03T13:05:16.673Z,23.47
2018-02-03T13:07:45.791Z,25.90
2018-02-03T13:10:14.880Z,24.50
2018-02-03T13:12:43.999Z,23.17
2018-02-03T13:15:13.120Z,23.77
2018-02-03T13:17:43.000Z,23.70
2018-02-03T13:20:12.141Z,22.03
2018-02-03T13:22:41.230Z,24.87
2018-02-03T13:25:10.349Z,20.80
2018-02-03T13:27:39.458Z,26.17
2018-02-03T13:30:09.134Z,27.63
2018-02-03T13:32:38.238Z,21.90
2018-02-03T13:35:07.334Z,30.83
2018-02-03T13:37:36.693Z,20.93
2018-02-03T13:40:05.817Z,23.50
2018-02-03T13:42:34.946Z,23.67
2018-02-03T13:45:04.804Z,22.60
2018-02-03T13:47:35.781Z,23.43
2018-02-03T13:50:05.688Z,24.50
2018-02-03T13:52:34.812Z,26.87
2018-02-03T13:55:03.936Z,27.67
2018-02-03T13:57:33.088Z,23.33
2018-02-03T14:00:02.196Z,23.03
2018-02-03T14:02:31.315Z,23.90
2018-02-03T14:05:01.199Z,21.63
2018-02-03T14:07:30.306Z,33.63
2018-02-03T14:09:59.487Z,21.03
2018-02-03T14:12:29.397Z,18.63
2018-02-03T14:14:58.571Z,21.87
2018-02-03T14:17:28.468Z,21.63
2018-02-03T14:19:57.568Z,17.93
2018-02-03T14:22:26.741Z,17.10
2018-02-03T14:25:02.962Z,20.33
2018-02-03T14:27:32.826Z,17.80
2018-02-03T14:30:02.825Z,18.40
2018-02-03T14:32:32.030Z,12.60
2018-02-03T14:35:01.123Z,14.60
2018-02-03T14:37:30.251Z,15.17
2018-02-03T14:39:59.343Z,13.57
2018-02-03T14:42:28.455Z,19.13
2018-02-03T14:44:57.568Z,11.20
2018-02-03T14:47:27.453Z,14.33
2018-02-03T14:49:56.556Z,14.50
2018-02-03T14:52:26.045Z,19.87
2018-02-03T14:54:55.167Z,16.67
2018-02-03T14:57:24.265Z,16.23
2018-02-03T14:59:54.185Z,17.77
2018-02-03T15:02:24.186Z,13.77
2018-02-03T15:04:53.304Z,16.30
2018-02-03T15:07:23.188Z,13.73
2018-02-03T15:09:52.304Z,14.73
2018-02-03T15:12:22.185Z,15.67
2018-02-03T15:14:51.325Z,19.33
2018-02-03T15:17:20.455Z,17.23
2018-02-03T15:19:49.588Z,16.23
2018-02-03T15:22:18.700Z,22.40
2018-02-03T15:24:48.573Z,21.97
2018-02-03T15:27:17.711Z,30.80
2018-02-03T15:29:46.808Z,39.30
2018-02-03T15:32:17.642Z,45.00
2018-02-03T15:34:46.919Z,50.03
2018-02-03T15:37:16.049Z,48.00
2018-02-03T15:39:45.935Z,31.23
2018-02-03T15:42:15.070Z,23.00
2018-02-03T15:44:44.919Z,21.13
2018-02-03T15:47:14.035Z,19.33
2018-02-03T15:49:43.206Z,19.93
2018-02-03T15:52:13.299Z,19.23
2018-02-03T15:54:43.018Z,21.23
2018-02-03T15:57:12.152Z,18.50
2018-02-03T15:59:41.263Z,19.63
2018-02-03T16:02:11.342Z,19.10
2018-02-03T16:04:40.438Z,25.73
2018-02-03T16:07:09.541Z,22.77
2018-02-03T16:09:38.654Z,24.33
2018-02-03T16:12:10.035Z,22.37
2018-02-03T16:14:39.957Z,18.33
2018-02-03T16:17:09.069Z,25.20
2018-02-03T16:19:38.196Z,23.07
2018-02-03T16:22:07.298Z,23.37
2018-02-03T16:24:37.360Z,22.80
2018-02-03T16:27:07.247Z,23.80
2018-02-03T16:29:36.368Z,22.83
2018-02-03T16:32:06.241Z,27.13
2018-02-03T16:34:35.378Z,23.10
2018-02-03T16:37:04.480Z,28.10
2018-02-03T16:39:33.582Z,25.73
2018-02-03T16:42:03.442Z,25.87
2018-02-03T16:44:32.578Z,31.23
2018-02-03T16:47:02.443Z,28.17
2018-02-03T16:49:31.555Z,36.10
2018-02-03T16:52:00.654Z,32.93
2018-02-03T16:54:29.786Z,32.00
2018-02-03T16:56:59.680Z,45.03
2018-02-03T16:59:28.802Z,33.43
2018-02-03T17:01:58.156Z,37.10
2018-02-03T17:04:27.258Z,28.43
2018-02-03T17:06:56.384Z,29.73
2018-02-03T17:09:25.876Z,34.73
2018-02-03T17:11:54.950Z,24.80
2018-02-03T17:14:24.083Z,26.47
2018-02-03T17:16:53.184Z,28.77
2018-02-03T17:19:23.074Z,33.40
2018-02-03T17:21:52.183Z,29.97
2018-02-03T17:24:21.323Z,30.00
2018-02-03T17:26:50.410Z,27.70
2018-02-03T17:29:19.519Z,24.57
2018-02-03T17:31:48.609Z,30.10
2018-02-03T17:34:17.695Z,26.90
2018-02-03T17:36:52.270Z,24.87
2018-02-03T17:39:21.386Z,28.80
2018-02-03T17:41:51.280Z,27.63
2018-02-03T17:44:20.369Z,25.80
2018-02-03T17:46:56.477Z,26.60
2018-02-03T17:49:27.005Z,23.70
2018-02-03T17:51:56.134Z,19.23
2018-02-03T17:54:25.290Z,19.73
2018-02-03T17:57:00.701Z,23.40
2018-02-03T17:59:29.810Z,26.80
2018-02-03T18:01:59.755Z,21.53
2018-02-03T18:04:29.615Z,24.40
2018-02-03T18:07:04.153Z,21.43
2018-02-03T18:09:33.237Z,24.77
2018-02-03T18:12:02.378Z,26.03
2018-02-03T18:14:32.254Z,24.93
2018-02-03T18:17:01.400Z,25.37
2018-02-03T18:19:31.280Z,23.57
2018-02-03T18:22:00.418Z,22.40
2018-02-03T18:24:30.310Z,28.17
2018-02-03T18:27:00.206Z,23.17
2018-02-03T18:29:32.067Z,20.03
2018-02-03T18:32:01.157Z,26.70
2018-02-03T18:34:30.290Z,23.83
2018-02-03T18:37:00.152Z,28.00
2018-02-03T18:39:29.276Z,27.17
2018-02-03T18:41:58.384Z,26.53
2018-02-03T18:44:28.274Z,26.83
2018-02-03T18:46:57.449Z,23.97
2018-02-03T18:49:26.567Z,22.37
2018-02-03T18:51:56.068Z,24.10
2018-02-03T18:54:25.201Z,25.47
2018-02-03T18:56:55.057Z,24.90
2018-02-03T18:59:24.183Z,23.33
2018-02-03T19:01:53.301Z,22.90
2018-02-03T19:04:23.180Z,27.40
2018-02-03T19:06:52.305Z,29.80
2018-02-03T19:09:21.410Z,33.60
2018-02-03T19:11:51.290Z,29.03
2018-02-03T19:14:20.394Z,29.10
2018-02-03T19:16:49.546Z,29.30
2018-02-03T19:19:18.628Z,34.57
2018-02-03T19:21:47.732Z,27.17
2018-02-03T19:24:16.874Z,26.53
2018-02-03T19:26:45.997Z,32.43
2018-02-03T19:29:15.901Z,25.17
2018-02-03T19:31:44.986Z,27.53
2018-02-03T19:34:14.904Z,28.23
2018-02-03T19:36:44.014Z,32.27
2018-02-03T19:39:13.873Z,36.70
2018-02-03T19:41:43.022Z,33.97
2018-02-03T19:44:12.168Z,34.77
2018-02-03T19:46:41.295Z,34.47
2018-02-03T19:49:10.411Z,29.13
2018-02-03T19:51:41.035Z,30.30
2018-02-03T19:54:10.938Z,29.43
2018-02-03T19:56:40.126Z,43.43
2018-02-03T19:59:09.474Z,30.87
2018-02-03T20:01:38.605Z,30.70
2018-02-03T20:04:07.725Z,26.90
2018-02-03T20:06:36.806Z,25.30
2018-02-03T20:09:06.712Z,28.67
2018-02-03T20:11:35.812Z,25.83
2018-02-03T20:14:04.958Z,25.00
2018-02-03T20:16:34.062Z,29.63
2018-02-03T20:19:05.866Z,28.80
2018-02-03T20:21:34.963Z,26.43
2018-02-03T20:24:04.897Z,26.83
2018-02-03T20:26:34.012Z,27.90
2018-02-03T20:29:03.145Z,23.60
2018-02-03T20:31:32.252Z,27.20
2018-02-03T20:34:01.408Z,36.00
2018-02-03T20:36:30.518Z,23.77
2018-02-03T20:39:00.402Z,27.10
2018-02-03T20:41:29.537Z,28.37
2018-02-03T20:44:00.156Z,34.60
2018-02-03T20:46:30.065Z,27.10
2018-02-03T20:48:59.172Z,28.87
2018-02-03T20:51:29.097Z,30.07
2018-02-03T20:53:58.182Z,26.53
2018-02-03T20:56:28.061Z,24.87
2018-02-03T20:58:57.190Z,23.70
2018-02-03T21:01:27.099Z,23.40
2018-02-03T21:03:57.031Z,27.47
2018-02-03T21:06:26.888Z,28.73
2018-02-03T21:08:56.004Z,24.80
2018-02-03T21:11:25.130Z,23.60
2018-02-03T21:13:55.022Z,20.03
2018-02-03T21:16:24.143Z,25.17
2018-02-03T21:18:54.025Z,20.50
2018-02-03T21:21:23.162Z,21.67
2018-02-03T21:23:52.284Z,25.60
2018-02-03T21:26:22.183Z,21.37
2018-02-03T21:28:51.301Z,24.60
2018-02-03T21:31:20.427Z,24.67
2018-02-03T21:33:49.506Z,20.93
2018-02-03T21:36:18.625Z,20.57
2018-02-03T21:38:49.251Z,20.87
2018-02-03T21:41:18.392Z,20.60
2018-02-03T21:43:47.501Z,21.07
2018-02-03T21:46:16.625Z,18.33
2018-02-03T21:48:45.753Z,20.43
2018-02-03T21:51:15.648Z,22.77
2018-02-03T21:53:44.796Z,25.73
2018-02-03T21:56:13.947Z,25.20
2018-02-03T21:58:43.057Z,21.87
2018-02-03T22:01:12.934Z,23.33
2018-02-03T22:03:42.063Z,24.20
2018-02-03T22:06:11.196Z,24.60
2018-02-03T22:08:40.313Z,21.03
2018-02-03T22:11:09.400Z,23.30
2018-02-03T22:13:38.527Z,22.10
2018-02-03T22:16:08.484Z,29.27
2018-02-03T22:18:38.374Z,25.37
2018-02-03T22:21:08.599Z,28.33
2018-02-03T22:23:37.720Z,22.93
2018-02-03T22:26:06.825Z,27.80
2018-02-03T22:28:35.926Z,27.17
2018-02-03T22:31:05.054Z,28.00
2018-02-03T22:33:34.143Z,25.27
2018-02-03T22:36:03.264Z,29.23
2018-02-03T22:38:33.579Z,26.73
2018-02-03T22:41:03.593Z,26.00
2018-02-03T22:43:32.681Z,27.23
2018-02-03T22:46:01.895Z,24.60
2018-02-03T22:48:30.974Z,23.60
2018-02-03T22:51:00.103Z,22.77
2018-02-03T22:53:29.204Z,26.40
2018-02-03T22:55:58.314Z,25.47
2018-02-03T22:58:28.171Z,25.30
2018-02-03T23:01:02.707Z,28.70
2018-02-03T23:03:31.837Z,23.43
2018-02-03T23:06:01.708Z,27.50
2018-02-03T23:08:32.497Z,27.80
2018-02-03T23:11:01.629Z,37.43
2018-02-03T23:13:30.749Z,36.70
2018-02-03T23:16:00.622Z,40.13
2018-02-03T23:18:29.719Z,36.13
2018-02-03T23:20:59.163Z,27.90
2018-02-03T23:23:28.290Z,26.30
2018-02-03T23:25:59.226Z,31.10
2018-02-03T23:28:28.379Z,29.97
2018-02-03T23:30:57.505Z,28.47
2018-02-03T23:33:26.613Z,30.60
2018-02-03T23:35:55.716Z,26.17
2018-02-03T23:41:00.827Z,30.50
2018-02-03T23:43:29.943Z,31.53
2018-02-03T23:45:59.055Z,28.43
2018-02-03T23:48:28.913Z,28.60
2018-02-03T23:50:58.049Z,24.10
2018-02-03T23:53:27.133Z,26.93
2018-02-03T23:55:56.279Z,23.67
2018-02-03T23:58:25.387Z,19.93
